Map

Track Data

SID SEASON NUMBER BASIN SUBBASIN NAME ISO_TIME NATURE LAT LON WMO_WIND WMO_PRES WMO_AGENCY TRACK_TYPE DIST2LAND LANDFALL IFLAG USA_AGENCY USA_ATCF_ID USA_LAT USA_LON USA_RECORD USA_STATUS USA_WIND USA_PRES USA_SSHS USA_R34_NE USA_R34_SE USA_R34_SW USA_R34_NW USA_R50_NE USA_R50_SE USA_R50_SW USA_R50_NW USA_R64_NE USA_R64_SE USA_R64_SW USA_R64_NW USA_POCI USA_ROCI USA_RMW USA_EYE TOKYO_LAT TOKYO_LON TOKYO_GRADE TOKYO_WIND TOKYO_PRES TOKYO_R50_DIR TOKYO_R50_LONG TOKYO_R50_SHORT TOKYO_R30_DIR TOKYO_R30_LONG TOKYO_R30_SHORT TOKYO_LAND CMA_LAT CMA_LON CMA_CAT CMA_WIND CMA_PRES HKO_LAT HKO_LON HKO_CAT HKO_WIND HKO_PRES NEWDELHI_LAT NEWDELHI_LON NEWDELHI_GRADE NEWDELHI_WIND NEWDELHI_PRES NEWDELHI_CI NEWDELHI_DP NEWDELHI_POCI REUNION_LAT REUNION_LON REUNION_TYPE REUNION_WIND REUNION_PRES REUNION_TNUM REUNION_CI REUNION_RMW REUNION_R34_NE REUNION_R34_SE REUNION_R34_SW REUNION_R34_NW REUNION_R50_NE REUNION_R50_SE REUNION_R50_SW REUNION_R50_NW REUNION_R64_NE REUNION_R64_SE REUNION_R64_SW REUNION_R64_NW BOM_LAT BOM_LON BOM_TYPE BOM_WIND BOM_PRES BOM_TNUM BOM_CI BOM_RMW BOM_R34_NE BOM_R34_SE BOM_R34_SW BOM_R34_NW BOM_R50_NE BOM_R50_SE BOM_R50_SW BOM_R50_NW BOM_R64_NE BOM_R64_SE BOM_R64_SW BOM_R64_NW BOM_ROCI BOM_POCI BOM_EYE BOM_POS_METHOD BOM_PRES_METHOD NADI_LAT NADI_LON NADI_CAT NADI_WIND NADI_PRES WELLINGTON_LAT WELLINGTON_LON WELLINGTON_WIND WELLINGTON_PRES DS824_LAT DS824_LON DS824_STAGE DS824_WIND DS824_PRES TD9636_LAT TD9636_LON TD9636_STAGE TD9636_WIND TD9636_PRES TD9635_LAT TD9635_LON TD9635_WIND TD9635_PRES TD9635_ROCI NEUMANN_LAT NEUMANN_LON NEUMANN_CLASS NEUMANN_WIND NEUMANN_PRES MLC_LAT MLC_LON MLC_CLASS MLC_WIND MLC_PRES USA_GUST BOM_GUST BOM_GUST_PER REUNION_GUST REUNION_GUST_PER USA_SEAHGT USA_SEARAD_NE USA_SEARAD_SE USA_SEARAD_SW USA_SEARAD_NW STORM_SPEED STORM_DIR
1872306S15069 1873 28 SI MM NOT_NAMED 1872-10-31 18:00:00 NR -14.8000 69.1000 main 1346 1331 __________O___ -1 -14.8000 69.1000 7 3 227
1872306S15069 1873 28 SI MM NOT_NAMED 1872-10-31 21:00:00 NR -14.9109 68.9765 main 1331 1316 __________P___ -1 -14.9109 68.9765 7 3 228
1872306S15069 1873 28 SI MM NOT_NAMED 1872-11-01 00:00:00 NR -15.0274 68.8424 main 1307 1292 __________P___ -1 -15.0274 68.8424 7 4 229
1872306S15069 1873 28 SI MM NOT_NAMED 1872-11-01 03:00:00 NR -15.1553 68.6871 main 1287 1263 __________P___ -1 -15.1553 68.6871 7 4 230
1872306S15069 1873 28 SI MM NOT_NAMED 1872-11-01 06:00:00 NR -15.3000 68.5000 main 1263 1233 __________O___ -1 -15.3000 68.5000 7 5 232
1872306S15069 1873 28 SI MM NOT_NAMED 1872-11-01 09:00:00 NR -15.4648 68.2748 main 1233 1199 __________P___ -1 -15.4648 68.2748 7 6 233
1872306S15069 1873 28 SI MM NOT_NAMED 1872-11-01 12:00:00 NR -15.6426 68.0226 main 1199 1170 __________P___ -1 -15.6426 68.0226 7 6 234
1872306S15069 1873 28 SI MM NOT_NAMED 1872-11-01 15:00:00 NR -15.8241 67.7591 main 1170 1131 __________P___ -1 -15.8241 67.7591 7 6 235
1872306S15069 1873 28 SI MM NOT_NAMED 1872-11-01 18:00:00 NR -16.0000 67.5000 main 1131 1107 __________O___ -1 -16.0000 67.5000 7 6 235
1872306S15069 1873 28 SI MM NOT_NAMED 1872-11-01 21:00:00 NR -16.1530 67.2757 main 1102 1078 __________P___ -1 -16.1530 67.2757 7 5 235
1872306S15069 1873 28 SI MM NOT_NAMED 1872-11-02 00:00:00 NR -16.2998 67.0571 main 1078 1045 __________P___ -1 -16.2998 67.0571 7 5 235
1872306S15069 1873 28 SI MM NOT_NAMED 1872-11-02 03:00:00 NR -16.4467 66.8350 main 1045 1016 __________P___ -1 -16.4467 66.8350 7 5 236
1872306S15069 1873 28 SI MM NOT_NAMED 1872-11-02 06:00:00 NR -16.6000 66.6000 main 1016 992 __________O___ -1 -16.6000 66.6000 7 6 237
1872306S15069 1873 28 SI MM NOT_NAMED 1872-11-02 09:00:00 NR -16.7515 66.3432 main 977 953 __________P___ -1 -16.7515 66.3432 7 6 238
1872306S15069 1873 28 SI MM NOT_NAMED 1872-11-02 12:00:00 NR -16.9124 66.0721 main 953 915 __________P___ -1 -16.9124 66.0721 7 6 237
1872306S15069 1873 28 SI MM NOT_NAMED 1872-11-02 15:00:00 NR -17.0921 65.7900 main 915 877 __________P___ -1 -17.0921 65.7900 7 7 235
1872306S15069 1873 28 SI MM NOT_NAMED 1872-11-02 18:00:00 NR -17.3000 65.5000 main 877 839 __________O___ -1 -17.3000 65.5000 7 7 230
1872306S15069 1873 28 SI MM NOT_NAMED 1872-11-02 21:00:00 NR -17.5502 65.2113 main 834 796 __________P___ -1 -17.5502 65.2113 7 8 227
1872306S15069 1873 28 SI MM NOT_NAMED 1872-11-03 00:00:00 NR -17.8273 64.9150 main 796 755 __________P___ -1 -17.8273 64.9150 7 8 225
1872306S15069 1873 28 SI MM NOT_NAMED 1872-11-03 03:00:00 NR -18.1158 64.6112 main 755 714 __________P___ -1 -18.1158 64.6112 7 8 226
1872306S15069 1873 28 SI MM NOT_NAMED 1872-11-03 06:00:00 NR -18.4000 64.3000 main 714 677 __________O___ -1 -18.4000 64.3000 7 8 228
1872306S15069 1873 28 SI MM NOT_NAMED 1872-11-03 09:00:00 NR -18.6611 63.9820 main 673 637 __________P___ -1 -18.6611 63.9820 7 8 230
1872306S15069 1873 28 SI MM NOT_NAMED 1872-11-03 12:00:00 NR -18.9148 63.6572 main 637 591 __________P___ -1 -18.9148 63.6572 7 8 231
1872306S15069 1873 28 SI MM NOT_NAMED 1872-11-03 15:00:00 NR -19.1611 63.3288 main 588 553 __________P___ -1 -19.1611 63.3288 7 8 232
1872306S15069 1873 28 SI MM NOT_NAMED 1872-11-03 18:00:00 NR -19.4000 63.0000 main 553 518 __________O___ -1 -19.4000 63.0000 7 8 233
1872306S15069 1873 28 SI MM NOT_NAMED 1872-11-03 21:00:00 NR -19.6318 62.6732 main 518 483 __________P___ -1 -19.6318 62.6732 7 8 233
1872306S15069 1873 28 SI MM NOT_NAMED 1872-11-04 00:00:00 NR -19.8579 62.3482 main 471 438 __________P___ -1 -19.8579 62.3482 7 8 234
1872306S15069 1873 28 SI MM NOT_NAMED 1872-11-04 03:00:00 NR -20.0801 62.0241 main 438 406 __________P___ -1 -20.0801 62.0241 7 8 234
1872306S15069 1873 28 SI MM NOT_NAMED 1872-11-04 06:00:00 NR -20.3000 61.7000 main 406 __________O___ -1 -20.3000 61.7000 7 8 234

About IBTrACS Database

This database is a web-friendly format of International Best Track Archive for Climate Stewardship (IBTrACS), a global best track data archive curated by NOAA dating back to 1842.

Updated: 2021-12-01